Aumsville, Oregon
Current Conditions -  °F | °C
As of 4:56 PM on Saturday 22 Nov 2014 (Local Time) from KSLE Reporting Station
Few Clouds Few Clouds  
Wind Chill: 11°   Ceiling: Unl
Heat Index: 11°   Visibility: 10mi
Dew Point:   Wind: 3mph
Humidity: 68%   Direction: 240°WSW
Pressure: 30.11"   Gusts: NA
Location:  44.84°N, 122.87°W
Report Text: KSLE 230056Z 24003KT 10SM FEW050 11/05 A3011 RMK AO2 SLP195 T01060050
Loading
Personal Weather Stations






























Interactive Weather Map New forecast layout! Learn more

10-Day Weather Forecast

Advertisements
Track Severe Weather on mobile